KSBN/SBN METAR and TAF weather

Enter ICAO airport designator
Station Type Date Time Source
KSBN METAR 2019/05/25 15:54 UTC NOAA

KSBN 251554Z 23011KT 10SM CLR 26/18 A2994 RMK AO2 SLP134 T02610183


Station Type Date Time Source
KSBN Decoded METAR 2019/05/25 15:54 UTC NOAA

SOUTH BEND REGIONAL AIRPORT, IN, United States (KSBN) 41-42N 086-19W 237M
May 25, 2019 - 11:54 AM EDT / 2019.05.25 1554 UTC
Wind: from the SW (230 degrees) at 13 MPH (11 KT):0
Visibility: 10 mile(s):0
Sky conditions: clear
Temperature: 79.0 F (26.1 C)
Dew Point: 64.9 F (18.3 C)
Relative Humidity: 62%
Pressure (altimeter): 29.94 in. Hg (1013 hPa)
ob: KSBN 251554Z 23011KT 10SM CLR 26/18 A2994 RMK AO2 SLP134 T02610183
cycle: 16

Station Type Date Time Source
KSBN TAF 2019/05/25 12:33 UTC NOAA

TAF KSBN 251130Z 2512/2612 22011KT P6SM BKN200
FM251500 23013G21KT P6SM VCSH SCT050 BKN150
FM252300 25009KT P6SM SCT050 BKN120
FM260600 23007KT P6SM VCSH BKN050

Example: see airport list